createdAt,value
2022-12-13T00:02:04.524Z,98516.63
2022-12-13T00:05:07.619Z,98515.44
2022-12-13T00:08:10.340Z,98522.63
2022-12-13T00:11:15.370Z,98513.13
2022-12-13T00:14:18.604Z,98512.63
2022-12-13T00:17:21.377Z,98523.00
2022-12-13T00:20:24.184Z,98520.84
2022-12-13T00:23:26.894Z,98513.84
2022-12-13T00:26:32.324Z,98524.91
2022-12-13T00:29:35.081Z,98528.75
2022-12-13T00:32:37.844Z,98544.13
2022-12-13T00:35:41.250Z,98533.44
2022-12-13T00:38:44.076Z,98540.31
2022-12-13T00:41:48.608Z,98542.16
2022-12-13T00:44:51.360Z,98534.97
2022-12-13T00:47:54.178Z,98535.16
2022-12-13T00:50:56.931Z,98542.34
2022-12-13T00:54:00.462Z,98540.69
2022-12-13T00:57:04.722Z,98536.16
2022-12-13T01:00:08.233Z,98533.50
2022-12-13T01:03:21.198Z,98546.03
2022-12-13T01:06:27.804Z,98554.03
2022-12-13T01:09:32.538Z,98550.69
2022-12-13T01:12:36.691Z,98551.06
2022-12-13T01:15:41.559Z,98540.38
2022-12-13T01:18:44.331Z,98541.72
2022-12-13T01:21:47.213Z,98543.38
2022-12-13T01:24:50.077Z,98565.75
2022-12-13T01:27:54.255Z,98572.47
2022-12-13T01:30:57.849Z,98568.97
2022-12-13T01:34:00.637Z,98570.81
2022-12-13T01:37:03.461Z,98578.84
2022-12-13T01:40:15.701Z,98578.16
2022-12-13T01:43:20.491Z,98570.00
2022-12-13T01:46:23.349Z,98562.97
2022-12-13T01:49:26.239Z,98586.72
2022-12-13T01:52:29.760Z,98590.34
2022-12-13T01:55:41.482Z,98584.16
2022-12-13T01:58:46.594Z,98579.19
2022-12-13T02:01:50.846Z,98574.66
2022-12-13T02:04:56.559Z,98583.88
2022-12-13T02:07:59.690Z,98586.53
2022-12-13T02:11:03.389Z,98593.88
2022-12-13T02:14:09.837Z,98587.06
2022-12-13T02:17:17.570Z,98589.34
2022-12-13T02:20:35.141Z,98583.19
2022-12-13T02:24:09.283Z,98588.53
2022-12-13T02:27:14.278Z,98591.88
2022-12-13T02:30:30.658Z,98597.56
2022-12-13T02:33:41.594Z,98593.22
2022-12-13T02:36:48.696Z,98587.06
2022-12-13T02:39:56.419Z,98590.91
2022-12-13T02:43:02.864Z,98594.59
2022-12-13T02:46:07.946Z,98597.03
2022-12-13T02:49:11.182Z,98596.56
2022-12-13T02:52:15.035Z,98601.91
2022-12-13T02:55:28.328Z,98596.94
2022-12-13T02:58:34.270Z,98598.59
2022-12-13T03:01:50.154Z,98599.59
2022-12-13T03:05:18.242Z,98608.38
2022-12-13T03:08:23.690Z,98608.22
2022-12-13T03:11:48.853Z,98607.16
2022-12-13T03:14:57.469Z,98588.41
2022-12-13T03:18:04.902Z,98573.66
2022-12-13T03:21:09.061Z,98573.59
2022-12-13T03:24:11.803Z,98575.25
2022-12-13T03:27:14.700Z,98590.38
2022-12-13T03:30:17.525Z,98584.16
2022-12-13T03:33:22.181Z,98580.94
2022-12-13T03:36:28.222Z,98578.91
2022-12-13T03:39:30.945Z,98597.47
2022-12-13T03:42:33.761Z,98587.06
2022-12-13T03:45:36.501Z,98598.25
2022-12-13T03:48:40.769Z,98599.91
2022-12-13T03:51:43.517Z,98602.38
2022-12-13T03:54:46.280Z,98596.66
2022-12-13T03:57:49.006Z,98600.69
2022-12-13T04:00:51.783Z,98599.69
2022-12-13T04:03:55.920Z,98594.31
2022-12-13T04:06:58.685Z,98591.31
2022-12-13T04:10:03.588Z,98607.81
2022-12-13T04:13:35.140Z,98599.16
2022-12-13T04:16:37.929Z,98602.13
2022-12-13T04:19:42.119Z,98614.47
2022-12-13T04:22:44.884Z,98614.47
2022-12-13T04:25:47.696Z,98613.84
2022-12-13T04:28:54.404Z,98609.97
2022-12-13T04:31:57.647Z,98602.75
2022-12-13T04:35:01.933Z,98600.91
2022-12-13T04:38:04.768Z,98611.28
2022-12-13T04:41:08.297Z,98609.25
2022-12-13T04:44:27.303Z,98623.06
2022-12-13T04:47:31.959Z,98619.56
2022-12-13T04:50:36.183Z,98612.22
2022-12-13T04:53:38.934Z,98630.09
2022-12-13T04:56:41.681Z,98644.31
2022-12-13T04:59:47.086Z,98632.13
2022-12-13T05:02:49.934Z,98630.94
2022-12-13T05:05:54.152Z,98642.09
2022-12-13T05:09:00.553Z,98630.38
2022-12-13T05:12:03.979Z,98634.91
2022-12-13T05:15:24.573Z,98632.53
2022-12-13T05:18:27.361Z,98624.69
2022-12-13T05:21:31.515Z,98616.16
2022-12-13T05:24:34.266Z,98616.47
2022-12-13T05:27:37.075Z,98606.41
2022-12-13T05:30:40.166Z,98610.09
2022-12-13T05:33:42.934Z,98601.06
2022-12-13T05:36:47.066Z,98595.50
2022-12-13T05:39:49.849Z,98601.06
2022-12-13T05:43:00.999Z,98592.00
2022-12-13T05:46:04.782Z,98584.66
2022-12-13T05:49:07.566Z,98587.34
2022-12-13T05:52:17.840Z,98594.34
2022-12-13T05:55:20.723Z,98590.16
2022-12-13T05:58:23.521Z,98592.69
2022-12-13T06:01:26.221Z,98589.19
2022-12-13T06:04:28.986Z,98583.44
2022-12-13T06:07:33.179Z,98572.56
2022-12-13T06:10:35.936Z,98577.91
2022-12-13T06:13:42.335Z,98581.59
2022-12-13T06:16:46.290Z,98579.56
2022-12-13T06:19:49.121Z,98580.41
2022-12-13T06:22:53.424Z,98574.50
2022-12-13T06:25:56.147Z,98564.00
2022-12-13T06:28:58.901Z,98537.56
2022-12-13T06:32:03.663Z,98529.53
2022-12-13T06:35:27.550Z,98524.03
2022-12-13T06:38:32.373Z,98520.97
2022-12-13T06:41:39.414Z,98525.94
2022-12-13T06:44:42.811Z,98532.31
2022-12-13T06:47:45.552Z,98533.34
2022-12-13T06:50:48.459Z,98535.19
2022-12-13T06:53:52.739Z,98534.34
2022-12-13T06:56:55.587Z,98524.03
2022-12-13T06:59:58.343Z,98539.16
2022-12-13T07:03:01.142Z,98544.22
2022-12-13T07:06:06.933Z,98539.59
2022-12-13T07:09:11.120Z,98540.13
2022-12-13T07:12:13.839Z,98538.03
2022-12-13T07:15:16.669Z,98557.09
2022-12-13T07:18:19.587Z,98558.75
2022-12-13T07:21:22.614Z,98561.91
2022-12-13T07:24:26.795Z,98562.25
2022-12-13T07:27:29.521Z,98562.03
2022-12-13T07:30:33.473Z,98573.19
2022-12-13T07:33:36.508Z,98576.16
2022-12-13T07:36:39.244Z,98586.13
2022-12-13T07:39:43.397Z,98589.19
2022-12-13T07:42:50.370Z,98575.41
2022-12-13T07:45:53.165Z,98586.94
2022-12-13T07:48:56.074Z,98591.28
2022-12-13T07:52:04.609Z,98593.78
2022-12-13T07:55:09.460Z,98585.59
2022-12-13T07:58:14.114Z,98598.59
2022-12-13T08:01:18.512Z,98600.44
2022-12-13T08:04:21.452Z,98605.25
2022-12-13T08:07:24.293Z,98590.38
2022-12-13T08:10:28.515Z,98581.50
2022-12-13T08:13:31.348Z,98573.47
2022-12-13T08:16:34.207Z,98557.22
2022-12-13T08:19:36.981Z,98555.38
2022-12-13T08:22:39.994Z,98546.19
2022-12-13T08:25:44.142Z,98549.88
2022-12-13T08:28:46.898Z,98538.16
2022-12-13T08:31:49.729Z,98535.28
2022-12-13T08:34:52.470Z,98533.63
2022-12-13T08:37:55.242Z,98534.66
2022-12-13T08:41:01.140Z,98522.91
2022-12-13T08:44:03.866Z,98518.19
2022-12-13T08:47:06.685Z,98509.53
2022-12-13T08:50:09.529Z,98510.38
2022-12-13T08:53:27.883Z,98494.59
2022-12-13T08:56:33.008Z,98501.78
2022-12-13T08:59:35.767Z,98498.28
2022-12-13T09:02:39.074Z,98480.81
2022-12-13T09:05:42.492Z,98474.81
2022-12-13T09:08:51.768Z,98482.66
2022-12-13T09:11:59.764Z,98477.13
2022-12-13T09:15:02.805Z,98481.00
2022-12-13T09:18:05.849Z,98475.66
2022-12-13T09:21:10.490Z,98484.31
2022-12-13T09:24:24.058Z,98479.63
2022-12-13T09:27:29.161Z,98475.28
2022-12-13T09:30:32.081Z,98475.28
2022-12-13T09:33:40.884Z,98478.97
2022-12-13T09:36:44.542Z,98468.06
2022-12-13T09:39:47.707Z,98458.22
2022-12-13T09:43:12.339Z,98458.84
2022-12-13T09:46:27.140Z,98447.50
2022-12-13T09:49:40.058Z,98443.81
2022-12-13T09:52:43.689Z,98442.16
2022-12-13T09:55:48.043Z,98450.19
2022-12-13T09:58:53.833Z,98443.81
2022-12-13T13:14:57.021Z,98089.59
2022-12-13T13:18:00.051Z,98081.97
2022-12-13T13:21:21.718Z,98078.28
2022-12-13T13:24:25.881Z,98068.00
2022-12-13T13:27:30.553Z,98058.72
2022-12-13T13:30:34.921Z,98051.16
2022-12-13T13:33:43.440Z,98044.53
2022-12-13T13:36:47.313Z,98036.69
2022-12-13T13:39:58.872Z,98026.56
2022-12-13T13:43:09.586Z,98016.16
2022-12-13T13:46:13.761Z,98016.22
2022-12-13T13:49:16.512Z,98011.34
2022-12-13T13:52:27.539Z,98015.75
2022-12-13T13:55:45.490Z,98003.03
2022-12-13T13:59:10.990Z,97986.84
2022-12-13T14:02:35.935Z,97980.97
2022-12-13T14:05:57.685Z,97954.84
2022-12-13T14:09:14.586Z,97951.84
2022-12-13T14:12:38.019Z,97947.53
2022-12-13T14:15:58.345Z,97945.03
2022-12-13T14:19:16.138Z,97927.25
2022-12-13T14:22:23.862Z,97922.94
2022-12-13T14:25:40.402Z,97911.38
2022-12-13T14:28:47.862Z,97899.44
2022-12-13T14:31:50.864Z,97896.94
2022-12-13T14:34:54.315Z,97879.22
2022-12-13T14:37:59.881Z,97861.66
2022-12-13T14:41:03.943Z,97858.41
2022-12-13T14:44:15.940Z,97841.34
2022-12-13T14:47:18.939Z,97839.91
2022-12-13T14:50:22.519Z,97833.53
2022-12-13T14:53:29.167Z,97828.81
2022-12-13T14:56:32.276Z,97821.22
2022-12-13T14:59:35.031Z,97814.25
2022-12-13T15:02:37.821Z,97806.81
2022-12-13T15:05:48.700Z,97788.13
2022-12-13T15:08:55.206Z,97771.69
2022-12-13T15:12:14.597Z,97764.31
2022-12-13T15:15:29.153Z,97765.53
2022-12-13T15:18:33.039Z,97771.31
2022-12-13T15:21:35.808Z,97766.16
2022-12-13T15:24:48.543Z,97751.78
2022-12-13T15:27:52.627Z,97754.72
2022-12-13T15:30:55.799Z,97747.34
2022-12-13T15:34:28.482Z,97748.56
2022-12-13T15:37:33.828Z,97744.50
2022-12-13T15:40:37.951Z,97741.63
2022-12-13T15:43:44.669Z,97739.16
2022-12-13T15:46:48.743Z,97737.09
2022-12-13T15:49:52.773Z,97721.88
2022-12-13T15:53:00.767Z,97715.50
2022-12-13T15:56:24.833Z,97707.09
2022-12-13T15:59:29.228Z,97706.28
2022-12-13T16:02:32.334Z,97693.75
2022-12-13T16:05:35.731Z,97687.22
2022-12-13T16:08:40.759Z,97687.97
2022-12-13T16:11:49.696Z,97681.00
2022-12-13T16:14:52.470Z,97671.31
2022-12-13T16:18:08.210Z,97673.78
2022-12-13T16:21:11.308Z,97679.97
2022-12-13T16:24:14.014Z,97661.25
2022-12-13T16:27:18.666Z,97661.03
2022-12-13T16:30:25.566Z,97653.25
2022-12-13T16:33:28.607Z,97660.88
2022-12-13T16:36:31.357Z,97652.63
2022-12-13T16:39:34.134Z,97646.72
2022-12-13T16:42:38.269Z,97645.84
2022-12-13T16:45:42.915Z,97636.03
2022-12-13T16:48:45.736Z,97634.19
2022-12-13T16:51:49.229Z,97628.22
2022-12-13T16:54:52.839Z,97624.06
2022-12-13T16:57:57.789Z,97616.63
2022-12-13T17:01:02.000Z,97623.41
2022-12-13T17:04:11.762Z,97623.16
2022-12-13T17:07:16.908Z,97624.16
2022-12-13T17:10:21.244Z,97615.69
2022-12-13T17:13:25.753Z,97620.56
2022-12-13T17:16:29.278Z,97601.78
2022-12-13T17:19:32.939Z,97607.78
2022-12-13T17:22:35.641Z,97593.28
2022-12-13T17:25:39.801Z,97594.91
2022-12-13T17:28:43.941Z,97603.09
2022-12-13T17:31:46.705Z,97602.59
2022-12-13T17:34:49.873Z,97603.38
2022-12-13T17:37:52.859Z,97599.69
2022-12-13T17:40:55.629Z,97597.59
2022-12-13T17:44:01.461Z,97600.47
2022-12-13T17:47:04.574Z,97590.16
2022-12-13T17:50:09.036Z,97594.09
2022-12-13T17:53:11.836Z,97592.03
2022-12-13T17:56:16.235Z,97581.78
2022-12-13T17:59:20.625Z,97581.94
2022-12-13T18:02:24.028Z,97582.75
2022-12-13T18:05:26.870Z,97581.28
2022-12-13T18:08:29.783Z,97583.53
2022-12-13T18:11:34.035Z,97599.09
2022-12-13T18:14:39.044Z,97602.97
2022-12-13T18:18:10.109Z,97608.16
2022-12-13T18:21:05.945Z,97609.66
2022-12-13T18:24:08.896Z,97598.09
2022-12-13T18:27:11.646Z,97590.97
2022-12-13T18:30:17.196Z,97596.97
2022-12-13T18:33:20.391Z,97604.16
2022-12-13T18:59:57.633Z,97671.44
2022-12-13T19:03:00.428Z,97675.94
2022-12-13T19:06:03.183Z,97687.72
2022-12-13T19:09:07.023Z,97705.50
2022-12-13T19:12:09.779Z,97703.69
2022-12-13T19:15:26.405Z,97704.56
2022-12-13T19:18:29.141Z,97714.84
2022-12-13T19:21:31.968Z,97719.59
2022-12-13T19:24:35.092Z,97727.88
2022-12-13T19:27:37.925Z,97732.63
2022-12-13T19:30:44.770Z,97744.78
2022-12-13T19:33:48.998Z,97749.94
2022-12-13T19:36:51.833Z,97752.81
2022-12-13T19:39:54.578Z,97763.94
2022-12-13T19:42:57.411Z,97771.75
2022-12-13T19:46:01.591Z,97767.03
2022-12-13T19:49:04.578Z,97777.34
2022-12-13T19:52:07.324Z,97768.09
2022-12-13T19:55:10.935Z,97780.88
2022-12-13T19:58:13.698Z,97784.38
2022-12-13T20:01:18.455Z,97799.47
2022-12-13T20:04:21.235Z,97784.13
2022-12-13T20:07:26.684Z,97795.66
2022-12-13T20:10:29.451Z,97810.06
2022-12-13T20:13:32.441Z,97818.91
2022-12-13T20:16:39.878Z,97816.28
2022-12-13T20:19:42.636Z,97829.66
2022-12-13T20:22:45.491Z,97843.09
2022-12-13T20:25:59.674Z,97844.84
2022-12-13T20:29:02.537Z,97851.72
2022-12-13T20:32:06.814Z,97850.03
2022-12-13T20:35:09.802Z,97866.81
2022-12-13T20:38:12.665Z,97877.94
2022-12-13T20:41:15.466Z,97890.28
2022-12-13T20:44:18.285Z,97887.63
2022-12-13T20:47:22.526Z,97903.47
2022-12-13T20:50:25.325Z,97904.94
2022-12-13T20:53:28.500Z,97903.09
2022-12-13T20:56:34.443Z,97911.28
2022-12-13T20:59:37.325Z,97915.59
2022-12-13T21:02:41.428Z,97927.47
2022-12-13T21:05:47.983Z,97928.13
2022-12-13T21:08:54.650Z,97932.47
2022-12-13T21:11:57.864Z,97939.09
2022-12-13T21:15:00.631Z,97940.91
2022-12-13T21:18:04.810Z,97955.53
2022-12-13T21:21:07.556Z,97959.81
2022-12-13T21:24:10.702Z,97964.78
2022-12-13T21:27:13.608Z,97976.13
2022-12-13T21:30:16.474Z,97976.94
2022-12-13T21:33:20.547Z,97987.09
2022-12-13T21:36:24.229Z,97985.16
2022-12-13T21:39:28.981Z,97996.81
2022-12-13T21:42:31.738Z,98003.28
2022-12-13T21:45:34.603Z,98005.81
2022-12-13T21:48:39.681Z,98006.63
2022-12-13T21:51:47.592Z,98016.28
2022-12-13T21:54:55.660Z,98027.19
2022-12-13T21:58:24.768Z,98042.53
2022-12-13T22:01:28.380Z,98049.41
2022-12-13T22:04:33.191Z,98054.75
2022-12-13T22:07:35.955Z,98059.69
2022-12-13T22:10:58.834Z,98074.91
2022-12-13T22:14:01.560Z,98079.66
2022-12-13T22:17:04.802Z,98087.66
2022-12-13T22:20:10.754Z,98087.66
2022-12-13T22:23:13.570Z,98103.72
2022-12-13T22:26:16.306Z,98101.66
2022-12-13T22:29:19.134Z,98098.78
2022-12-13T22:32:22.559Z,98106.19
2022-12-13T22:35:27.762Z,98103.13
2022-12-13T22:38:30.563Z,98112.16
2022-12-13T22:41:33.438Z,98125.41
2022-12-13T22:44:36.201Z,98134.84
2022-12-13T22:47:39.009Z,98136.22
2022-12-13T22:50:43.129Z,98152.28
2022-12-13T22:53:46.796Z,98151.06
2022-12-13T22:56:50.107Z,98165.06
2022-12-13T22:59:52.946Z,98170.22
2022-12-13T23:02:55.774Z,98173.72
2022-12-13T23:06:05.789Z,98180.56
2022-12-13T23:09:09.733Z,98191.25
2022-12-13T23:12:41.771Z,98199.66
2022-12-13T23:15:49.156Z,98205.81
2022-12-13T23:19:05.258Z,98215.69
2022-12-13T23:22:16.992Z,98216.53
2022-12-13T23:25:19.697Z,98236.88
2022-12-13T23:28:22.506Z,98246.22
2022-12-13T23:31:26.059Z,98260.13
2022-12-13T23:34:28.786Z,98261.63
2022-12-13T23:37:32.937Z,98268.97
2022-12-13T23:40:35.675Z,98273.69
2022-12-13T23:43:39.057Z,98287.53
2022-12-13T23:46:41.915Z,98295.91
2022-12-13T23:49:51.407Z,98308.28
2022-12-13T23:52:55.591Z,98310.75
2022-12-13T23:55:58.730Z,98320.19
2022-12-13T23:59:01.539Z,98323.69
